createdAt,value
2022-10-05T00:00:01.394Z,2.20
2022-10-05T00:02:33.510Z,2.00
2022-10-05T00:05:02.037Z,2.13
2022-10-05T00:07:31.348Z,2.10
2022-10-05T00:10:01.057Z,2.07
2022-10-05T00:12:30.882Z,2.23
2022-10-05T00:15:02.733Z,2.03
2022-10-05T00:17:31.825Z,2.07
2022-10-05T00:20:01.191Z,2.20
2022-10-05T00:22:33.185Z,2.20
2022-10-05T00:25:12.091Z,2.40
2022-10-05T00:27:42.817Z,1.83
2022-10-05T00:30:17.135Z,2.67
2022-10-05T00:32:46.591Z,2.27
2022-10-05T00:35:17.569Z,2.13
2022-10-05T00:37:52.207Z,2.30
2022-10-05T00:40:36.686Z,2.30
2022-10-05T00:43:45.954Z,2.30
2022-10-05T00:46:23.565Z,2.13
2022-10-05T00:49:04.803Z,2.13
2022-10-05T00:51:37.004Z,2.00
2022-10-05T00:54:29.088Z,2.10
2022-10-05T00:57:20.169Z,2.57
2022-10-05T01:00:06.684Z,2.60
2022-10-05T01:02:52.310Z,2.40
2022-10-05T01:05:46.597Z,2.40
2022-10-05T01:08:30.651Z,2.63
2022-10-05T01:11:12.609Z,2.40
2022-10-05T01:13:54.507Z,2.20
2022-10-05T01:16:32.820Z,2.33
2022-10-05T01:19:22.790Z,2.20
2022-10-05T01:21:58.353Z,2.30
2022-10-05T01:24:50.883Z,2.37
2022-10-05T01:27:40.085Z,2.20
2022-10-05T01:30:13.425Z,2.20
2022-10-05T01:32:50.810Z,2.10
2022-10-05T01:35:44.604Z,2.33
2022-10-05T01:38:36.581Z,2.07
2022-10-05T01:41:22.635Z,2.13
2022-10-05T01:44:00.554Z,1.97
2022-10-05T01:46:39.137Z,2.17
2022-10-05T01:49:37.134Z,2.20
2022-10-05T01:52:29.565Z,1.83
2022-10-05T01:55:16.155Z,2.20
2022-10-05T01:58:02.261Z,2.10
2022-10-05T02:00:41.956Z,2.20
2022-10-05T02:03:19.001Z,2.40
2022-10-05T02:05:55.528Z,2.57
2022-10-05T02:08:35.678Z,2.23
2022-10-05T02:11:10.043Z,2.17
2022-10-05T02:13:44.635Z,2.50
2022-10-05T02:16:24.294Z,2.30
2022-10-05T02:18:58.238Z,2.53
2022-10-05T02:21:28.395Z,2.50
2022-10-05T02:24:07.842Z,2.30
2022-10-05T02:26:38.492Z,2.43
2022-10-05T02:29:12.801Z,3.07
2022-10-05T02:31:51.493Z,2.77
2022-10-05T02:34:30.465Z,3.00
2022-10-05T02:37:29.098Z,2.40
2022-10-05T02:40:17.630Z,2.27
2022-10-05T02:42:57.419Z,3.27
2022-10-05T02:45:41.248Z,3.40
2022-10-05T02:48:22.457Z,2.77
2022-10-05T02:51:00.069Z,2.40
2022-10-05T02:53:41.058Z,2.90
2022-10-05T02:56:24.697Z,2.90
2022-10-05T02:59:05.281Z,3.00
2022-10-05T03:01:42.410Z,2.60
2022-10-05T03:04:30.487Z,3.00
2022-10-05T03:07:16.155Z,3.20
2022-10-05T03:10:01.121Z,3.40
2022-10-05T03:12:48.648Z,3.13
2022-10-05T03:15:59.764Z,2.63
2022-10-05T03:18:50.009Z,3.03
2022-10-05T03:21:42.336Z,2.57
2022-10-05T03:24:40.129Z,3.20
2022-10-05T03:27:26.836Z,3.13
2022-10-05T03:30:06.907Z,2.83
2022-10-05T03:32:55.957Z,2.70
2022-10-05T03:35:32.707Z,2.70
2022-10-05T03:38:15.143Z,2.80
2022-10-05T03:40:54.219Z,3.03
2022-10-05T03:43:53.874Z,3.13
2022-10-05T03:46:40.331Z,3.13
2022-10-05T03:49:16.933Z,3.33
2022-10-05T03:51:52.766Z,3.33
2022-10-05T03:54:30.880Z,3.93
2022-10-05T03:57:08.530Z,3.67
2022-10-05T03:59:45.897Z,3.93
2022-10-05T04:02:24.062Z,3.60
2022-10-05T04:05:01.420Z,3.93
2022-10-05T04:07:43.429Z,3.80
2022-10-05T04:10:20.258Z,3.67
2022-10-05T04:12:56.825Z,3.80
2022-10-05T04:15:35.083Z,4.20
2022-10-05T04:18:16.612Z,3.67
2022-10-05T04:20:52.073Z,3.70
2022-10-05T04:23:37.661Z,4.07
2022-10-05T04:26:14.594Z,3.63
2022-10-05T04:28:54.903Z,3.80
2022-10-05T04:31:57.539Z,3.87
2022-10-05T04:34:54.270Z,3.53
2022-10-05T04:37:46.637Z,3.50
2022-10-05T04:40:39.900Z,3.40
2022-10-05T04:43:20.452Z,3.60
2022-10-05T04:46:19.209Z,3.43
2022-10-05T04:49:12.656Z,3.90
2022-10-05T04:51:56.843Z,3.67
2022-10-05T04:54:42.722Z,4.30
2022-10-05T04:57:20.858Z,3.90
2022-10-05T05:00:18.333Z,4.13
2022-10-05T05:03:13.838Z,4.00
2022-10-05T05:06:16.380Z,4.23
2022-10-05T05:09:27.641Z,4.40
2022-10-05T05:12:18.069Z,4.80
2022-10-05T05:15:27.089Z,4.40
2022-10-05T05:18:36.017Z,4.47
2022-10-05T05:21:22.835Z,5.13
2022-10-05T05:24:03.596Z,4.50
2022-10-05T05:26:58.939Z,4.73
2022-10-05T05:29:48.981Z,4.17
2022-10-05T05:32:33.267Z,4.13
2022-10-05T05:35:24.542Z,4.87
2022-10-05T05:38:14.689Z,4.70
2022-10-05T05:40:53.737Z,5.60
2022-10-05T05:43:30.871Z,4.80
2022-10-05T05:46:07.241Z,5.30
2022-10-05T05:48:43.327Z,5.30
2022-10-05T05:51:21.835Z,4.13
2022-10-05T05:53:57.191Z,5.57
2022-10-05T05:56:35.526Z,5.13
2022-10-05T05:59:15.159Z,5.17
2022-10-05T06:01:51.941Z,5.07
2022-10-05T06:04:32.327Z,5.03
2022-10-05T06:07:05.989Z,5.07
2022-10-05T06:09:44.307Z,4.73
2022-10-05T06:12:28.215Z,4.87
2022-10-05T06:15:02.951Z,4.70
2022-10-05T06:17:42.321Z,5.07
2022-10-05T06:20:23.258Z,4.30
2022-10-05T06:22:53.472Z,5.23
2022-10-05T06:25:37.561Z,5.13
2022-10-05T06:28:12.087Z,4.27
2022-10-05T06:31:04.794Z,5.10
2022-10-05T06:33:53.112Z,3.87
2022-10-05T06:36:44.201Z,4.07
2022-10-05T06:39:41.138Z,4.40
2022-10-05T06:42:36.637Z,3.53
2022-10-05T06:45:27.127Z,4.00
2022-10-05T06:48:42.752Z,3.20
2022-10-05T06:51:43.653Z,3.60
2022-10-05T06:54:42.572Z,3.73
2022-10-05T06:57:30.010Z,3.40
2022-10-05T07:00:03.832Z,3.10
2022-10-05T07:02:47.905Z,3.03
2022-10-05T07:05:52.394Z,3.23
2022-10-05T07:08:38.221Z,3.33
2022-10-05T07:11:25.490Z,3.43
2022-10-05T07:14:14.272Z,3.63
2022-10-05T07:17:05.284Z,2.93
2022-10-05T07:19:47.440Z,3.33
2022-10-05T07:22:47.598Z,3.30
2022-10-05T07:25:23.733Z,3.30
2022-10-05T07:28:01.786Z,3.43
2022-10-05T07:30:36.111Z,3.77
2022-10-05T07:33:14.725Z,3.70
2022-10-05T07:36:14.124Z,3.67
2022-10-05T07:38:53.703Z,3.70
2022-10-05T07:41:38.097Z,3.63
2022-10-05T07:44:16.962Z,3.43
2022-10-05T07:46:55.510Z,5.20
2022-10-05T07:49:37.477Z,3.63
2022-10-05T07:52:12.564Z,3.47
2022-10-05T07:54:56.981Z,3.83
2022-10-05T07:57:44.711Z,3.40
2022-10-05T08:00:20.265Z,3.53
2022-10-05T08:02:56.456Z,3.20
2022-10-05T08:05:30.516Z,3.37
2022-10-05T08:08:14.317Z,3.33
2022-10-05T08:10:57.038Z,3.17
2022-10-05T08:13:34.303Z,3.13
2022-10-05T08:16:12.458Z,3.13
2022-10-05T08:19:00.908Z,3.53
2022-10-05T08:21:37.495Z,3.30
2022-10-05T08:24:18.653Z,3.10
2022-10-05T08:26:56.266Z,2.97
2022-10-05T08:29:35.355Z,3.13
2022-10-05T08:32:12.052Z,2.80
2022-10-05T08:34:52.792Z,3.30
2022-10-05T08:37:27.282Z,3.00
2022-10-05T08:40:13.366Z,3.20
2022-10-05T08:43:20.501Z,3.43
2022-10-05T08:46:17.679Z,3.50
2022-10-05T08:49:37.819Z,3.60
2022-10-05T08:52:29.829Z,3.13
2022-10-05T08:55:26.195Z,3.13
2022-10-05T08:58:43.383Z,2.90
2022-10-05T09:01:23.711Z,3.47
2022-10-05T09:04:21.309Z,3.37
2022-10-05T09:07:28.775Z,2.90
2022-10-05T09:10:53.635Z,3.13
2022-10-05T09:14:13.856Z,2.97
2022-10-05T09:17:24.552Z,2.87
2022-10-05T09:20:10.864Z,3.13
2022-10-05T09:23:00.999Z,3.30
2022-10-05T09:25:50.918Z,2.90
2022-10-05T09:28:32.096Z,3.00
2022-10-05T09:31:31.698Z,3.00
2022-10-05T09:34:46.198Z,2.87
2022-10-05T09:37:58.776Z,2.80
2022-10-05T09:41:16.585Z,2.90
2022-10-05T09:44:50.105Z,3.00
2022-10-05T09:48:00.606Z,3.10
2022-10-05T09:51:27.089Z,3.07
2022-10-05T09:54:39.270Z,2.83
2022-10-05T09:57:47.209Z,2.57
2022-10-05T10:00:29.067Z,2.63
2022-10-05T10:04:08.027Z,2.50
2022-10-05T10:07:17.231Z,2.50
2022-10-05T10:10:19.102Z,3.00
2022-10-05T10:13:18.066Z,2.73
2022-10-05T10:16:19.925Z,3.07
2022-10-05T10:19:20.847Z,2.73
2022-10-05T10:22:32.039Z,2.70
2022-10-05T10:25:28.683Z,2.60
2022-10-05T10:28:22.373Z,2.80
2022-10-05T10:31:19.211Z,2.90
2022-10-05T10:34:35.307Z,2.63
2022-10-05T10:37:40.552Z,2.80
2022-10-05T10:40:34.944Z,3.07
2022-10-05T10:43:49.236Z,3.03
2022-10-05T10:46:36.406Z,2.83
2022-10-05T10:49:26.769Z,3.00
2022-10-05T10:52:21.087Z,2.27
2022-10-05T10:55:28.603Z,2.67
2022-10-05T10:58:45.790Z,2.47
2022-10-05T11:01:32.464Z,2.50
2022-10-05T11:04:36.074Z,2.70
2022-10-05T11:07:42.740Z,2.77
2022-10-05T11:10:51.597Z,2.40
2022-10-05T11:13:48.703Z,2.80
2022-10-05T11:17:00.568Z,2.50
2022-10-05T11:20:06.172Z,2.50
2022-10-05T11:22:58.507Z,2.67
2022-10-05T11:25:53.627Z,2.43
2022-10-05T11:28:46.426Z,3.73
2022-10-05T11:31:54.098Z,2.60
2022-10-05T11:35:13.370Z,3.13
2022-10-05T11:38:04.663Z,2.57
2022-10-05T11:41:12.872Z,2.63
2022-10-05T11:44:29.747Z,2.90
2022-10-05T11:47:08.476Z,3.00
2022-10-05T11:49:46.886Z,2.80
2022-10-05T11:52:26.674Z,2.73
2022-10-05T11:55:22.922Z,3.10
2022-10-05T11:57:58.699Z,2.50
2022-10-05T12:00:37.189Z,2.60
2022-10-05T12:03:42.886Z,3.30
2022-10-05T12:06:40.946Z,2.80
2022-10-05T12:10:03.571Z,3.03
2022-10-05T12:12:45.026Z,2.93
2022-10-05T12:15:26.525Z,2.83
2022-10-05T12:18:08.213Z,2.97
2022-10-05T12:20:47.583Z,2.60
2022-10-05T12:23:28.785Z,2.80
2022-10-05T12:26:03.858Z,2.90
2022-10-05T12:28:39.652Z,3.30
2022-10-05T12:31:29.045Z,2.73
2022-10-05T12:34:11.435Z,4.87
2022-10-05T12:37:05.049Z,2.50
2022-10-05T12:39:44.470Z,3.23
2022-10-05T12:42:29.603Z,2.80
2022-10-05T12:45:19.619Z,2.70
2022-10-05T12:48:14.137Z,3.00
2022-10-05T12:50:49.281Z,2.60
2022-10-05T12:53:40.306Z,3.13
2022-10-05T12:56:21.577Z,3.27
2022-10-05T12:59:00.395Z,3.30
2022-10-05T13:01:42.376Z,2.90
2022-10-05T13:04:31.444Z,2.50
2022-10-05T13:07:25.602Z,2.67
2022-10-05T13:10:11.151Z,2.20
2022-10-05T13:12:53.917Z,2.30
2022-10-05T13:15:30.874Z,2.40
2022-10-05T13:18:18.193Z,2.20
2022-10-05T13:21:02.743Z,2.57
2022-10-05T13:23:57.398Z,2.63
2022-10-05T13:26:34.492Z,3.07
2022-10-05T13:29:17.625Z,2.30
2022-10-05T13:31:54.304Z,2.57
2022-10-05T13:34:32.224Z,2.40
2022-10-05T13:37:13.491Z,2.53
2022-10-05T13:39:59.282Z,2.57
2022-10-05T13:42:39.023Z,2.43
2022-10-05T13:45:19.415Z,2.37
2022-10-05T13:48:13.140Z,2.40
2022-10-05T13:50:52.032Z,2.43
2022-10-05T13:53:35.405Z,2.23
2022-10-05T13:56:18.407Z,2.40
2022-10-05T13:58:52.656Z,2.23
2022-10-05T14:01:42.343Z,3.03
2022-10-05T14:04:19.812Z,1.97
2022-10-05T14:06:50.167Z,2.20
2022-10-05T14:09:33.011Z,2.20
2022-10-05T14:12:19.634Z,2.00
2022-10-05T14:14:52.211Z,2.30
2022-10-05T14:17:42.997Z,2.20
2022-10-05T14:20:26.991Z,1.90
2022-10-05T14:23:03.800Z,2.00
2022-10-05T14:25:50.248Z,1.93
2022-10-05T14:28:29.503Z,1.83
2022-10-05T14:31:00.585Z,1.70
2022-10-05T14:33:33.533Z,2.20
2022-10-05T14:36:02.710Z,1.87
2022-10-05T14:38:37.056Z,1.60
2022-10-05T14:41:20.165Z,1.77
2022-10-05T14:43:55.830Z,1.80
2022-10-05T14:46:29.215Z,1.73
2022-10-05T14:49:22.841Z,1.70
2022-10-05T14:51:53.290Z,1.87
2022-10-05T14:54:41.768Z,1.60
2022-10-05T14:57:25.108Z,1.73
2022-10-05T15:00:16.484Z,1.73
2022-10-05T15:03:21.878Z,2.00
2022-10-05T15:05:56.143Z,1.70
2022-10-05T15:08:53.328Z,1.70
2022-10-05T15:11:38.670Z,1.97
2022-10-05T15:14:18.706Z,1.60
2022-10-05T15:16:51.411Z,1.67
2022-10-05T15:19:25.876Z,1.90
2022-10-05T15:22:18.986Z,1.83
2022-10-05T15:25:03.823Z,1.47
2022-10-05T15:27:51.331Z,1.63
2022-10-05T15:30:23.193Z,1.80
2022-10-05T15:33:09.707Z,1.60
2022-10-05T15:36:05.318Z,1.80
2022-10-05T15:38:45.677Z,1.60
2022-10-05T15:41:20.948Z,1.80
2022-10-05T15:44:07.762Z,1.80
2022-10-05T15:46:53.440Z,1.57
2022-10-05T15:49:37.058Z,1.50
2022-10-05T15:52:23.872Z,1.43
2022-10-05T15:55:20.256Z,1.60
2022-10-05T15:58:08.843Z,1.60
2022-10-05T16:00:47.434Z,1.60
2022-10-05T16:03:28.045Z,1.23
2022-10-05T16:06:24.561Z,1.70
2022-10-05T16:09:11.362Z,1.37
2022-10-05T16:12:03.193Z,1.47
2022-10-05T16:14:59.727Z,1.60
2022-10-05T16:17:54.266Z,1.40
2022-10-05T16:20:41.025Z,2.07
2022-10-05T16:23:23.753Z,1.70
2022-10-05T16:26:13.111Z,1.70
2022-10-05T16:28:57.583Z,1.43
2022-10-05T16:31:37.306Z,1.50
2022-10-05T16:34:27.177Z,1.40
2022-10-05T16:37:10.557Z,1.50
2022-10-05T16:40:00.354Z,1.80
2022-10-05T16:42:49.671Z,1.83
2022-10-05T16:45:44.793Z,2.17
2022-10-05T16:48:23.580Z,1.80
2022-10-05T16:51:18.370Z,1.90
2022-10-05T16:54:00.120Z,1.73
2022-10-05T16:56:38.508Z,2.07
2022-10-05T16:59:47.545Z,2.00
2022-10-05T17:02:34.942Z,2.40
2022-10-05T17:05:25.866Z,1.80
2022-10-05T17:08:15.127Z,2.30
2022-10-05T17:11:04.813Z,2.10
2022-10-05T17:14:16.583Z,2.13
2022-10-05T17:17:15.908Z,2.20
2022-10-05T17:20:15.885Z,2.07
2022-10-05T17:22:53.042Z,2.40
2022-10-05T17:25:35.278Z,2.30
2022-10-05T17:28:25.261Z,2.60
2022-10-05T17:31:15.898Z,2.37
2022-10-05T17:34:14.498Z,2.70
2022-10-05T17:36:49.849Z,2.30
2022-10-05T17:39:21.287Z,2.10
2022-10-05T17:41:50.536Z,1.90
2022-10-05T17:44:26.042Z,2.30
2022-10-05T17:46:58.475Z,2.50
2022-10-05T17:50:17.590Z,2.03
2022-10-05T17:53:35.341Z,2.50
2022-10-05T17:56:05.848Z,2.80
2022-10-05T17:59:04.452Z,3.00
2022-10-05T18:01:37.373Z,2.53
2022-10-05T18:04:38.684Z,2.67
2022-10-05T18:07:28.138Z,2.60
2022-10-05T18:10:21.857Z,2.83
2022-10-05T18:13:21.649Z,2.40
2022-10-05T18:15:50.485Z,2.33
2022-10-05T18:18:57.138Z,2.50
2022-10-05T18:21:34.243Z,2.17
2022-10-05T18:24:55.701Z,2.73
2022-10-05T18:28:11.964Z,2.60
2022-10-05T18:31:17.449Z,2.63
2022-10-05T18:34:05.268Z,2.43
2022-10-05T18:37:08.730Z,2.50
2022-10-05T18:40:08.545Z,2.60
2022-10-05T18:42:50.638Z,2.23
2022-10-05T18:45:26.899Z,2.30
2022-10-05T18:48:18.106Z,1.93
2022-10-05T18:50:59.602Z,2.20
2022-10-05T18:53:40.414Z,2.00
2022-10-05T18:56:26.273Z,2.10
2022-10-05T18:59:24.124Z,2.30
2022-10-05T19:02:10.971Z,2.77
2022-10-05T19:04:59.854Z,2.43
2022-10-05T19:07:45.386Z,2.37
2022-10-05T19:10:25.861Z,2.00
2022-10-05T19:13:13.804Z,2.63
2022-10-05T19:15:58.649Z,2.50
2022-10-05T19:18:59.859Z,2.17
2022-10-05T19:21:40.023Z,2.63
2022-10-05T19:24:42.698Z,2.03
2022-10-05T19:27:25.450Z,2.37
2022-10-05T19:30:22.922Z,2.60
2022-10-05T19:33:18.297Z,2.40
2022-10-05T19:36:02.043Z,2.03
2022-10-05T19:38:42.411Z,1.87
2022-10-05T19:41:18.662Z,2.10
2022-10-05T19:44:14.660Z,2.20
2022-10-05T19:47:01.096Z,2.30
2022-10-05T19:49:58.924Z,2.43
2022-10-05T19:52:40.029Z,2.70
2022-10-05T19:55:17.209Z,2.43
2022-10-05T19:57:50.702Z,2.70
2022-10-05T20:00:26.788Z,2.60
2022-10-05T20:03:11.910Z,2.50
2022-10-05T20:05:42.458Z,2.43
2022-10-05T20:08:18.125Z,2.57
2022-10-05T20:11:04.117Z,2.30
2022-10-05T20:13:35.091Z,2.73
2022-10-05T20:16:46.543Z,2.80
2022-10-05T20:19:49.452Z,2.90
2022-10-05T20:22:35.132Z,2.50
2022-10-05T20:25:07.033Z,2.87
2022-10-05T20:27:43.508Z,2.63
2022-10-05T20:30:16.235Z,2.70
2022-10-05T20:32:45.572Z,2.50
2022-10-05T20:35:15.753Z,2.40
2022-10-05T20:37:45.796Z,2.53
2022-10-05T20:40:14.827Z,2.73
2022-10-05T20:42:43.579Z,2.87
2022-10-05T20:45:13.631Z,2.67
2022-10-05T20:47:42.336Z,3.40
2022-10-05T20:50:11.867Z,2.30
2022-10-05T20:52:40.515Z,3.13
2022-10-05T20:55:13.182Z,2.70
2022-10-05T20:57:42.499Z,2.50
2022-10-05T21:00:13.498Z,2.63
2022-10-05T21:02:42.269Z,2.57
2022-10-05T21:05:10.900Z,2.40
2022-10-05T21:07:40.809Z,2.50
2022-10-05T21:10:11.355Z,2.50
2022-10-05T21:12:39.776Z,2.70
2022-10-05T21:15:10.052Z,2.70
2022-10-05T21:17:38.801Z,2.60
2022-10-05T21:20:11.129Z,2.50
2022-10-05T21:22:39.574Z,2.83
2022-10-05T21:25:10.265Z,2.60
2022-10-05T21:27:38.639Z,2.60
2022-10-05T21:30:09.026Z,2.77
2022-10-05T21:32:41.822Z,2.57
2022-10-05T21:35:12.545Z,2.57
2022-10-05T21:37:40.967Z,2.90
2022-10-05T21:40:11.833Z,3.00
2022-10-05T21:42:40.642Z,2.67
2022-10-05T21:45:10.844Z,2.60
2022-10-05T21:47:39.317Z,2.80
2022-10-05T21:50:09.437Z,3.33
2022-10-05T21:52:37.983Z,3.20
2022-10-05T21:55:08.246Z,2.90
2022-10-05T21:57:40.487Z,2.80
2022-10-05T22:00:11.606Z,2.73
2022-10-05T22:02:39.997Z,2.90
2022-10-05T22:05:09.611Z,2.50
2022-10-05T22:07:38.391Z,2.90
2022-10-05T22:10:09.347Z,3.53
2022-10-05T22:12:39.132Z,3.10
2022-10-05T22:15:09.517Z,3.20
2022-10-05T22:17:38.837Z,3.13
2022-10-05T22:20:11.342Z,2.97
2022-10-05T22:22:40.106Z,2.90
2022-10-05T22:25:09.405Z,3.50
2022-10-05T22:27:39.841Z,2.60
2022-10-05T22:30:10.102Z,2.77
2022-10-05T22:32:38.486Z,2.90
2022-10-05T22:35:11.561Z,3.20
2022-10-05T22:37:40.403Z,2.63
2022-10-05T22:40:11.141Z,3.17
2022-10-05T22:42:41.816Z,2.67
2022-10-05T22:45:10.758Z,2.97
2022-10-05T22:47:39.138Z,3.00
2022-10-05T22:50:09.409Z,2.77
2022-10-05T22:52:37.981Z,2.87
2022-10-05T22:55:07.867Z,3.00
2022-10-05T22:57:42.368Z,2.80
2022-10-05T23:00:13.080Z,2.60
2022-10-05T23:02:44.901Z,2.67
2022-10-05T23:05:14.623Z,3.00
2022-10-05T23:07:46.500Z,2.97
2022-10-05T23:10:18.882Z,2.70
2022-10-05T23:13:00.511Z,2.83
2022-10-05T23:15:29.585Z,2.90
2022-10-05T23:17:58.339Z,3.03
2022-10-05T23:20:26.939Z,2.90
2022-10-05T23:22:55.321Z,2.90
2022-10-05T23:25:24.083Z,3.10
2022-10-05T23:27:53.849Z,2.70
2022-10-05T23:30:22.281Z,2.70
2022-10-05T23:32:50.690Z,2.53
2022-10-05T23:35:19.221Z,2.70
2022-10-05T23:37:47.657Z,3.03
2022-10-05T23:40:16.239Z,2.80
2022-10-05T23:42:46.142Z,2.93
2022-10-05T23:45:17.762Z,2.70
2022-10-05T23:47:47.514Z,2.57
2022-10-05T23:50:16.577Z,2.90
2022-10-05T23:52:44.967Z,2.47
2022-10-05T23:55:13.371Z,2.60
2022-10-05T23:57:41.987Z,2.70
